Time;durP1;ratioP1;P1;durP2;ratioP2;P2;SDS_P1;SDS_P2;PMS_P1;PMS_P2;Temp;Humidity;BMP_temperature;BMP_pressure;BME280_temperature;BME280_humidity;BME280_pressure;Samples;Min_cycle;Max_cycle;Signal;HPM_P1;HPM_P2
2021/07/29 00:01:08;;;;;;;21.80;4.95;;;;;;;13.11;93.07;100927.59;6093541;23;20002;-86
2021/07/29 00:14:51;;;;;;;6.05;1.75;;;;;;;12.86;91.02;100914.19;6035797;23;20084;-87
2021/07/29 00:56:38;;;;;;;33.78;6.18;;;;;;;13.38;95.22;100899.63;5817488;24;20458;-83
2021/07/29 00:59:33;;;;;;;;;;;;;;;;;;;;;
2021/07/29 01:02:35;;;;;;;36.85;6.75;;;;;;;13.69;95.61;100891.81;5837315;24;20052;-82
2021/07/29 01:05:37;;;;;;;32.25;5.50;;;;;;;13.78;95.52;100890.13;5919254;24;20111;-84
2021/07/29 01:11:57;;;;;;;22.13;6.28;;;;;;;13.90;95.12;100902.50;5995469;23;20011;-82
2021/07/29 01:15:29;;;;;;;34.45;6.07;;;;;;;13.96;95.12;100906.94;6160610;23;20099;-86
2021/07/29 01:18:43;;;;;;;34.05;5.35;;;;;;;14.03;94.86;100914.03;6179034;23;20020;-83
2021/07/29 01:21:12;;;;;;;36.53;6.15;;;;;;;14.11;94.01;100917.56;6058726;23;20034;-83
2021/07/29 01:23:38;;;;;;;17.30;2.67;;;;;;;14.10;87.36;100910.50;6153549;23;20040;-83
2021/07/29 01:44:08;;;;;;;8.98;2.28;;;;;;;12.94;89.75;100901.03;6088350;23;20007;-86
2021/07/29 02:22:23;;;;;;;;;;;;;;;;;;;;;
2021/07/29 02:28:34;;;;;;;5.53;1.55;;;;;;;12.27;86.77;100907.47;5701814;25;20036;-86
2021/07/29 02:31:19;;;;;;;6.03;1.35;;;;;;;12.27;87.21;100910.13;5680736;25;20145;-86
2021/07/29 02:38:00;;;;;;;;;;;;;;;;;;;;;
2021/07/29 02:40:43;;;;;;;6.85;1.95;;;;;;;12.22;87.48;100917.09;5871938;24;20052;-85
2021/07/29 02:44:13;;;;;;;;;;;;;;;;;;;;;
2021/07/29 02:46:44;;;;;;;;;;;;;;;;;;;;;
2021/07/29 02:49:40;;;;;;;6.57;1.50;;;;;;;12.23;87.60;100919.75;6213866;23;20019;-85
2021/07/29 02:52:29;;;;;;;10.63;2.05;;;;;;;12.23;87.72;100916.22;6216338;23;20004;-83
2021/07/29 02:55:20;;;;;;;5.32;1.35;;;;;;;12.20;88.31;100924.13;6215910;23;20008;-86
2021/07/29 02:58:15;;;;;;;;;;;;;;;;;;;;;
2021/07/29 03:01:15;;;;;;;5.35;1.23;;;;;;;12.23;88.45;100926.78;6202796;23;20444;-82
2021/07/29 03:04:23;;;;;;;7.10;1.60;;;;;;;12.25;88.77;100925.03;6188284;23;20091;-85
2021/07/29 03:07:09;;;;;;;6.70;1.60;;;;;;;12.26;88.55;100924.16;6208920;23;20021;-82
2021/07/29 03:10:04;;;;;;;;;;;;;;;;;;;;;
2021/07/29 03:12:51;;;;;;;7.40;1.83;;;;;;;12.24;88.90;100928.56;6191011;23;20085;-79
2021/07/29 03:15:48;;;;;;;9.98;1.60;;;;;;;12.23;89.02;100927.66;6211811;23;20015;-88
2021/07/29 03:18:39;;;;;;;7.13;1.58;;;;;;;12.22;89.15;100932.91;6209376;23;20067;-88
2021/07/29 03:21:22;;;;;;;15.00;2.10;;;;;;;12.24;89.66;100928.56;6194201;23;20005;-84
2021/07/29 03:23:55;;;;;;;5.80;2.00;;;;;;;12.28;90.31;100935.66;6215674;23;20012;-84
2021/07/29 03:26:20;;;;;;;10.27;1.93;;;;;;;12.36;90.40;100933.97;6210077;23;20066;-80
2021/07/29 03:28:46;;;;;;;11.05;2.00;;;;;;;12.42;90.40;100939.28;6211112;23;20346;-86
2021/07/29 03:31:12;;;;;;;9.15;2.55;;;;;;;12.46;90.75;100941.09;6184333;23;20008;-83
2021/07/29 03:33:38;;;;;;;13.05;2.53;;;;;;;12.51;90.63;100945.53;6210032;23;20079;-85
2021/07/29 03:36:04;;;;;;;12.05;2.00;;;;;;;12.52;89.79;100936.75;6210508;23;20008;-85
2021/07/29 03:38:30;;;;;;;14.60;1.85;;;;;;;12.51;89.73;100941.16;6210400;23;20004;-81
2021/07/29 03:40:55;;;;;;;9.35;2.30;;;;;;;12.45;89.76;100942.00;6210249;23;20007;-83
2021/07/29 03:43:21;;;;;;;5.72;1.95;;;;;;;12.44;89.70;100936.69;6211140;23;20005;-83
2021/07/29 03:45:46;;;;;;;9.40;2.22;;;;;;;12.41;90.25;100947.19;6210692;23;20016;-81
2021/07/29 03:48:32;;;;;;;10.75;2.30;;;;;;;12.37;90.57;100943.66;6210263;23;20079;-82
2021/07/29 03:50:57;;;;;;;6.63;2.03;;;;;;;12.37;90.61;100940.13;6211122;23;20004;-83
2021/07/29 03:53:27;;;;;;;10.57;2.28;;;;;;;12.38;90.68;100941.91;6210603;23;20324;-82
2021/07/29 03:56:12;;;;;;;11.02;2.08;;;;;;;12.37;90.93;100948.94;6211077;23;20012;-83
2021/07/29 03:58:38;;;;;;;16.27;2.10;;;;;;;12.37;90.74;100950.66;6209296;23;20076;-85
2021/07/29 04:01:07;;;;;;;7.40;2.30;;;;;;;12.34;90.98;100948.88;6210963;23;20000;-83
2021/07/29 04:03:32;;;;;;;7.93;2.20;;;;;;;12.32;91.15;100948.00;6211354;23;20001;-82
2021/07/29 04:05:58;;;;;;;10.40;2.95;;;;;;;12.31;91.70;100952.38;6213735;23;20082;-83
2021/07/29 04:08:23;;;;;;;13.77;2.92;;;;;;;12.32;92.11;100953.28;6190135;23;20428;-86
2021/07/29 04:10:49;;;;;;;11.00;2.75;;;;;;;12.34;91.59;100955.94;6215818;23;20024;-85
2021/07/29 04:13:14;;;;;;;8.63;2.50;;;;;;;12.39;92.19;100955.09;6215761;23;20008;-83
2021/07/29 04:15:39;;;;;;;16.17;2.83;;;;;;;12.44;92.38;100966.59;6216044;23;20028;-80
2021/07/29 04:18:25;;;;;;;14.82;3.00;;;;;;;12.53;92.59;100957.00;6216024;23;20000;-79
2021/07/29 04:20:50;;;;;;;9.52;2.35;;;;;;;12.63;92.41;100958.88;6216319;23;20000;-83
2021/07/29 04:23:36;;;;;;;13.82;2.47;;;;;;;12.77;92.01;100957.25;6216243;23;20431;-80
2021/07/29 04:26:21;;;;;;;12.23;2.83;;;;;;;12.89;91.78;100958.25;6216170;23;20009;-82
2021/07/29 04:28:46;;;;;;;12.93;2.63;;;;;;;12.94;91.12;100953.84;6213634;23;20063;-84
2021/07/29 04:31:12;;;;;;;8.82;2.50;;;;;;;13.00;91.03;100953.94;6215282;23;20001;-82
2021/07/29 04:33:58;;;;;;;14.07;2.55;;;;;;;13.01;90.67;100955.69;6216101;23;20059;-84
2021/07/29 04:36:45;;;;;;;11.20;2.70;;;;;;;13.04;90.64;100960.13;6216571;23;20009;-84
2021/07/29 04:39:13;;;;;;;13.20;2.40;;;;;;;13.03;90.25;100963.63;6216958;23;20016;-85
2021/07/29 04:41:59;;;;;;;14.77;2.47;;;;;;;13.05;90.68;100965.41;6216621;23;20004;-81
2021/07/29 04:44:24;;;;;;;11.30;3.03;;;;;;;13.07;90.79;100954.88;6216891;23;20079;-82
2021/07/29 04:46:50;;;;;;;15.45;2.60;;;;;;;13.10;90.90;100953.16;6216581;23;20087;-80
2021/07/29 04:49:19;;;;;;;15.38;3.03;;;;;;;13.11;90.84;100962.81;6217105;23;20077;-81
2021/07/29 04:52:04;;;;;;;10.50;2.75;;;;;;;13.13;90.94;100958.44;6216230;23;20024;-82
2021/07/29 04:54:30;;;;;;;11.80;2.17;;;;;;;13.23;90.35;100969.09;6216552;23;20016;-83
2021/07/29 04:56:58;;;;;;;11.13;2.60;;;;;;;13.27;89.91;100968.22;6216732;23;20083;-85
2021/07/29 04:59:23;;;;;;;9.15;2.47;;;;;;;13.31;90.47;100965.63;6216865;23;20024;-82
2021/07/29 05:02:28;;;;;;;13.88;3.03;;;;;;;13.46;90.72;100962.22;6216719;23;20009;-82
2021/07/29 05:05:14;;;;;;;8.80;2.33;;;;;;;13.64;89.07;100968.50;6216931;23;20094;-86
2021/07/29 05:07:59;;;;;;;10.13;2.10;;;;;;;13.69;88.65;100966.78;6215912;23;20008;-80
2021/07/29 05:10:24;;;;;;;13.52;2.50;;;;;;;13.77;87.47;100973.00;6216148;23;19996;-80
2021/07/29 05:13:10;;;;;;;11.90;2.42;;;;;;;13.82;87.36;100968.63;6216451;23;20031;-81
2021/07/29 05:15:37;;;;;;;7.85;2.03;;;;;;;13.82;87.56;100968.63;6214730;23;20012;-82
2021/07/29 05:18:02;;;;;;;13.73;2.42;;;;;;;13.89;87.83;100963.34;6216517;23;20387;-81
2021/07/29 05:21:07;;;;;;;16.02;2.22;;;;;;;14.05;88.00;100967.81;6216703;23;20001;-82
2021/07/29 05:23:53;;;;;;;12.73;3.70;;;;;;;14.29;87.74;100968.81;6216591;23;20325;-79
2021/07/29 05:26:19;;;;;;;11.85;3.63;;;;;;;14.46;87.94;100967.09;6216299;23;20012;-86
2021/07/29 05:28:44;;;;;;;12.65;2.83;;;;;;;14.60;87.60;100969.75;6216946;23;20012;-85
2021/07/29 05:31:30;;;;;;;16.42;2.92;;;;;;;14.60;87.40;100969.75;6217302;23;20008;-83
2021/07/29 05:34:15;;;;;;;13.50;3.15;;;;;;;14.52;87.89;100976.81;6217355;23;20085;-83
2021/07/29 05:36:41;;;;;;;15.80;3.20;;;;;;;14.54;87.20;100974.16;6216630;23;20024;-83
2021/07/29 05:39:06;;;;;;;14.50;2.88;;;;;;;14.53;87.57;100977.69;6216481;23;20008;-81
2021/07/29 05:41:59;;;;;;;13.55;3.03;;;;;;;14.63;87.73;100979.50;6216370;23;20004;-81
2021/07/29 05:44:24;;;;;;;18.35;4.15;;;;;;;14.62;88.26;100977.69;6190072;23;20036;-86
2021/07/29 05:46:50;;;;;;;15.38;3.03;;;;;;;14.68;87.46;100977.75;6216391;23;20019;-87
2021/07/29 05:49:35;;;;;;;16.63;3.85;;;;;;;14.73;86.86;100986.59;6216291;23;20009;-87
2021/07/29 05:52:21;;;;;;;17.63;3.20;;;;;;;14.88;85.94;100984.84;6215724;23;20005;-83
2021/07/29 05:55:26;;;;;;;20.85;3.20;;;;;;;15.21;84.88;100983.09;6216159;23;20059;-82
2021/07/29 05:57:53;;;;;;;11.85;2.75;;;;;;;15.36;84.64;100985.75;6215764;23;20032;-83
2021/07/29 06:00:18;;;;;;;13.13;3.22;;;;;;;15.57;83.33;100981.28;6216660;23;20150;-87
2021/07/29 06:03:06;;;;;;;12.18;2.63;;;;;;;15.93;83.08;100985.66;6216270;23;20424;-84
2021/07/29 06:05:42;;;;;;;;;;;;;;;;;;;;;
2021/07/29 06:08:15;;;;;;;10.13;2.60;;;;;;;16.05;80.78;100984.72;6216955;23;20020;-82
2021/07/29 06:11:03;;;;;;;16.92;2.75;;;;;;;16.31;78.89;100983.72;6216251;23;20001;-82
2021/07/29 06:13:49;;;;;;;10.13;1.98;;;;;;;16.79;78.14;100983.44;6217635;23;20032;-86
2021/07/29 06:16:17;;;;;;;9.45;2.05;;;;;;;17.52;74.83;100986.41;6218014;23;20005;-85
2021/07/29 06:19:08;;;;;;;10.65;2.67;;;;;;;18.00;70.09;100978.81;6218113;23;20074;-81
2021/07/29 06:21:34;;;;;;;8.07;2.10;;;;;;;18.52;68.10;100973.72;6218814;23;20016;-82
2021/07/29 06:24:00;;;;;;;6.55;2.00;;;;;;;18.75;65.69;100973.38;6217060;23;20005;-83
2021/07/29 06:26:26;;;;;;;10.27;2.25;;;;;;;19.13;65.67;100963.91;6218142;23;20466;-85
2021/07/29 06:29:17;;;;;;;9.75;2.50;;;;;;;19.28;62.10;100969.88;6217914;23;20013;-82
2021/07/29 06:32:02;;;;;;;9.10;2.10;;;;;;;19.28;65.17;100988.56;6216711;23;20313;-84
2021/07/29 06:34:48;;;;;;;29.77;2.97;;;;;;;19.43;63.38;100982.94;6217816;23;20012;-85
2021/07/29 06:37:13;;;;;;;13.00;2.42;;;;;;;19.71;60.34;100977.09;6217150;23;20008;-83
2021/07/29 06:39:44;;;;;;;8.82;2.38;;;;;;;19.99;60.50;100979.25;6217671;23;20013;-88
2021/07/29 06:42:33;;;;;;;7.85;2.20;;;;;;;19.46;60.66;100974.00;6218257;23;20011;-83
2021/07/29 06:44:58;;;;;;;13.20;2.30;;;;;;;19.42;60.14;100977.63;6219056;23;20004;-86
2021/07/29 06:48:04;;;;;;;7.40;1.73;;;;;;;19.32;59.12;100979.59;6218699;23;20034;-81
2021/07/29 06:50:52;;;;;;;9.10;2.00;;;;;;;19.38;59.85;100985.69;6214928;23;20428;-83
2021/07/29 06:53:54;;;;;;;8.43;2.53;;;;;;;19.49;60.88;100982.84;6216435;23;20011;-82
2021/07/29 06:56:22;;;;;;;8.82;1.80;;;;;;;19.66;60.29;100984.31;6217454;23;20009;-81
2021/07/29 06:58:47;;;;;;;11.35;2.50;;;;;;;19.76;58.14;100982.34;6217426;23;20001;-84
2021/07/29 07:01:13;;;;;;;8.77;3.55;;;;;;;19.28;58.53;100989.44;6217420;23;20040;-84
2021/07/29 07:03:38;;;;;;;10.68;2.10;;;;;;;18.92;59.09;100994.44;6216810;23;20008;-82
2021/07/29 07:06:23;;;;;;;12.57;2.10;;;;;;;18.99;60.07;100997.91;6217270;23;20011;-86
2021/07/29 07:08:48;;;;;;;9.48;2.03;;;;;;;18.85;60.79;101000.75;6216764;23;20016;-80
2021/07/29 07:11:18;;;;;;;6.93;2.58;;;;;;;18.93;60.99;101014.88;6216879;23;19996;-86
2021/07/29 07:14:05;;;;;;;11.27;2.40;;;;;;;19.11;61.08;101000.38;6216899;23;20012;-80
2021/07/29 07:17:13;;;;;;;7.88;2.13;;;;;;;19.16;60.83;101011.84;6216305;23;20383;-85
2021/07/29 07:19:39;;;;;;;12.20;2.20;;;;;;;19.13;59.11;101011.91;6217184;23;20013;-85
2021/07/29 07:22:06;;;;;;;4.70;1.77;;;;;;;19.44;57.58;101011.41;6217322;23;20016;-82
2021/07/29 07:24:35;;;;;;;6.65;1.90;;;;;;;19.38;58.48;101000.81;6217350;23;20458;-81
2021/07/29 07:27:24;;;;;;;7.20;2.42;;;;;;;19.21;58.39;101004.66;6216954;23;20091;-81
2021/07/29 07:29:49;;;;;;;11.00;2.47;;;;;;;19.40;59.30;101014.13;6217377;23;20016;-82
2021/07/29 07:32:15;;;;;;;7.38;2.00;;;;;;;19.27;59.93;101009.00;6216795;23;20073;-83
2021/07/29 07:34:40;;;;;;;8.43;2.75;;;;;;;19.23;61.02;101027.75;6216303;23;20119;-80
2021/07/29 07:37:08;;;;;;;12.02;2.33;;;;;;;19.46;59.54;101028.25;6216913;23;20011;-84
2021/07/29 07:39:54;;;;;;;5.82;2.45;;;;;;;19.23;60.04;101035.78;6218426;23;20030;-81
2021/07/29 07:42:39;;;;;;;6.20;1.90;;;;;;;19.16;59.85;101037.66;6217668;23;20016;-82
2021/07/29 07:45:05;;;;;;;9.13;2.10;;;;;;;19.28;60.48;101036.59;6218790;23;20009;-85
2021/07/29 07:47:35;;;;;;;10.48;2.05;;;;;;;19.28;59.22;101025.91;6217823;23;20009;-84
2021/07/29 07:50:21;;;;;;;10.02;2.05;;;;;;;19.10;60.49;101037.75;6190283;23;20051;-82
2021/07/29 07:52:46;;;;;;;9.65;2.00;;;;;;;18.75;58.73;101025.81;6215888;23;20008;-81
2021/07/29 07:55:12;;;;;;;5.63;1.98;;;;;;;19.09;61.34;101041.34;6216672;23;20361;-81
2021/07/29 07:57:42;;;;;;;9.55;2.30;;;;;;;18.87;59.56;101036.28;6217443;23;20012;-81
2021/07/29 08:00:09;;;;;;;12.52;2.70;;;;;;;19.12;60.99;101046.63;6218543;23;20020;-86
2021/07/29 08:02:34;;;;;;;8.00;2.00;;;;;;;19.09;59.39;101036.00;6217399;23;20009;-82
2021/07/29 08:05:00;;;;;;;7.68;2.00;;;;;;;19.16;59.23;101030.53;6217896;23;20057;-86
2021/07/29 08:07:34;;;;;;;10.82;2.50;;;;;;;19.15;60.24;101042.13;6218206;23;20086;-81
2021/07/29 08:10:00;;;;;;;7.25;2.42;;;;;;;19.37;59.93;101052.41;6217013;23;20004;-78
2021/07/29 08:12:47;;;;;;;7.60;1.80;;;;;;;19.50;59.41;101040.63;6217450;23;20019;-86
2021/07/29 08:15:41;;;;;;;12.88;2.28;;;;;;;19.50;59.02;101051.31;6216948;23;20035;-81
2021/07/29 08:18:11;;;;;;;11.10;2.20;;;;;;;19.00;56.91;101042.34;6217477;23;20017;-83
2021/07/29 08:20:40;;;;;;;9.52;2.60;;;;;;;18.64;59.00;101049.94;6216086;23;20001;-84
2021/07/29 08:23:08;;;;;;;7.40;2.15;;;;;;;18.65;60.05;101057.03;6191108;23;20009;-81
2021/07/29 08:25:33;;;;;;;7.72;2.08;;;;;;;18.41;58.63;101037.81;6216536;23;20005;-79
2021/07/29 08:28:26;;;;;;;11.90;3.22;;;;;;;18.34;58.77;101062.78;6216742;23;20031;-78
2021/07/29 08:30:52;;;;;;;8.75;2.20;;;;;;;18.43;59.05;101062.63;6217039;23;20031;-85
2021/07/29 08:33:37;;;;;;;4.28;1.92;;;;;;;18.69;58.30;101066.75;6216614;23;20016;-81
2021/07/29 08:36:25;;;;;;;9.60;2.00;;;;;;;18.64;58.24;101060.63;6216879;23;20040;-85
2021/07/29 08:39:30;;;;;;;9.32;1.73;;;;;;;19.15;56.21;101051.88;6215679;23;20012;-84
2021/07/29 08:41:56;;;;;;;7.13;2.10;;;;;;;19.50;56.04;101058.44;6216219;23;20005;-84
2021/07/29 08:44:21;;;;;;;11.05;2.67;;;;;;;19.55;55.96;101051.25;6217286;23;20011;-83
2021/07/29 08:47:09;;;;;;;6.97;1.98;;;;;;;19.63;54.05;101045.75;6217286;23;20008;-83
2021/07/29 08:50:15;;;;;;;4.55;1.90;;;;;;;19.95;55.12;101041.66;6217272;23;20416;-83
2021/07/29 08:52:40;;;;;;;9.95;2.28;;;;;;;20.11;52.24;101036.88;6217621;23;20012;-83
2021/07/29 08:55:25;;;;;;;6.30;1.90;;;;;;;20.09;51.42;101036.94;6216789;23;20378;-83
2021/07/29 08:57:51;;;;;;;10.05;1.92;;;;;;;20.29;52.30;101038.28;6216304;23;20332;-85
2021/07/29 09:00:17;;;;;;;8.50;2.25;;;;;;;20.69;51.44;101035.69;6217424;23;19997;-89
2021/07/29 09:02:42;;;;;;;5.85;1.95;;;;;;;21.16;49.58;101038.16;6216303;23;20035;-86
2021/07/29 09:05:28;;;;;;;8.60;1.92;;;;;;;21.82;48.99;101024.00;6216071;23;20424;-82
2021/07/29 09:08:06;;;;;;;6.82;1.77;;;;;;;21.99;47.79;101026.19;6215658;23;20391;-88
2021/07/29 09:10:32;;;;;;;6.53;2.40;;;;;;;21.39;48.69;101023.31;6217266;23;20435;-89
2021/07/29 09:13:49;;;;;;;11.13;1.80;;;;;;;21.60;48.44;101026.41;6210792;23;20066;-81
2021/07/29 09:16:14;;;;;;;6.15;1.90;;;;;;;21.60;48.40;101035.31;6215526;23;20016;-80
2021/07/29 09:19:20;;;;;;;6.85;2.10;;;;;;;21.66;46.63;101023.53;6190061;23;20008;-85
2021/07/29 09:22:14;;;;;;;8.70;2.15;;;;;;;21.61;48.88;101038.84;6216619;23;20015;-78
2021/07/29 09:25:03;;;;;;;5.50;1.50;;;;;;;22.03;46.95;101034.13;6212059;23;20020;-80
2021/07/29 09:27:37;;;;;;;8.85;1.98;;;;;;;22.03;46.18;101028.78;6215916;23;20455;-87
2021/07/29 09:30:26;;;;;;;8.45;1.98;;;;;;;22.57;49.76;101029.00;6215205;23;20020;-79
2021/07/29 09:33:26;;;;;;;7.00;1.70;;;;;;;22.67;44.64;101016.22;6215801;23;20493;-87
2021/07/29 09:35:53;;;;;;;6.63;1.77;;;;;;;22.51;46.12;101042.63;6132511;23;20058;-86
2021/07/29 09:38:44;;;;;;;8.27;2.42;;;;;;;22.48;46.26;101038.22;6217217;23;20012;-88
2021/07/29 09:41:28;;;;;;;5.72;1.52;;;;;;;22.88;43.50;101020.91;6216030;23;20008;-87
2021/07/29 09:43:54;;;;;;;7.15;1.77;;;;;;;22.98;45.50;101031.31;6216914;23;20036;-82
2021/07/29 09:46:41;;;;;;;6.97;1.90;;;;;;;22.86;44.08;101032.63;6217242;23;20009;-81
2021/07/29 09:49:26;;;;;;;7.10;1.77;;;;;;;22.53;43.80;101030.94;6219284;23;20012;-81
2021/07/29 09:51:53;;;;;;;7.35;1.38;;;;;;;22.98;42.41;101034.00;6217977;23;20008;-87
2021/07/29 09:54:58;;;;;;;5.03;1.73;;;;;;;22.85;42.12;101026.34;6219175;23;20012;-90
2021/07/29 09:57:23;;;;;;;3.67;1.60;;;;;;;22.62;42.94;101036.94;6217952;23;20012;-84
2021/07/29 09:59:52;;;;;;;5.90;1.85;;;;;;;22.59;43.41;101039.72;6218694;23;20008;-86
2021/07/29 10:02:38;;;;;;;8.32;1.83;;;;;;;22.78;45.15;101046.25;6219119;23;20000;-84
2021/07/29 10:05:59;;;;;;;7.55;1.63;;;;;;;22.69;42.51;101038.50;6218251;23;20008;-85
2021/07/29 10:09:08;;;;;;;9.98;1.77;;;;;;;22.90;42.26;101039.63;6219681;23;20012;-83
2021/07/29 10:12:13;;;;;;;6.45;1.75;;;;;;;23.47;41.15;101035.09;6219728;23;20084;-82
2021/07/29 10:15:38;;;;;;;2.83;1.40;;;;;;;24.01;40.63;101021.59;6219596;23;20013;-84
2021/07/29 10:18:50;;;;;;;3.38;1.42;;;;;;;24.84;39.37;101031.91;6219565;23;20004;-81
2021/07/29 10:21:38;;;;;;;6.75;2.00;;;;;;;24.98;39.08;101023.25;6219921;23;20005;-79
2021/07/29 10:24:27;;;;;;;11.23;1.52;;;;;;;25.36;39.11;101018.13;6219937;23;20013;-86
2021/07/29 10:27:03;;;;;;;5.30;1.73;;;;;;;25.51;38.18;101016.56;6219087;23;20112;-82
2021/07/29 10:29:51;;;;;;;5.20;1.60;;;;;;;25.04;38.56;101022.13;6219948;23;20032;-88
2021/07/29 10:32:48;;;;;;;6.70;1.50;;;;;;;25.41;37.25;101012.53;6219590;23;20052;-79
2021/07/29 10:35:26;;;;;;;6.00;1.80;;;;;;;25.46;36.30;101001.56;6219232;23;20005;-83
2021/07/29 10:37:54;;;;;;;4.78;1.95;;;;;;;25.43;37.56;101029.50;6219220;23;20272;-81
2021/07/29 10:40:39;;;;;;;8.07;1.90;;;;;;;25.83;37.20;101022.38;6218889;23;20020;-79
2021/07/29 10:43:23;;;;;;;5.85;2.30;;;;;;;25.59;35.87;101019.81;6218453;23;20336;-84
2021/07/29 10:46:30;;;;;;;7.50;1.33;;;;;;;25.32;37.89;101026.38;6218568;23;20009;-84
2021/07/29 10:49:29;;;;;;;8.90;1.40;;;;;;;25.75;36.48;101022.72;6217745;23;20455;-84
2021/07/29 10:52:10;;;;;;;6.63;1.75;;;;;;;25.66;36.39;101030.34;6208009;23;20132;-79
2021/07/29 10:54:37;;;;;;;5.68;1.42;;;;;;;25.12;36.61;101036.16;6217513;23;20363;-82
2021/07/29 10:59:58;;;;;;;9.60;1.77;;;;;;;25.66;37.67;101027.66;6219412;23;20017;-82
2021/07/29 11:02:56;;;;;;;10.30;2.08;;;;;;;25.73;36.19;101040.78;6218988;23;20420;-85
2021/07/29 11:05:27;;;;;;;6.72;1.63;;;;;;;25.08;39.33;101043.50;6181804;23;20032;-80
2021/07/29 11:08:12;;;;;;;10.10;1.48;;;;;;;25.72;36.73;101032.75;6218480;23;20009;-85
2021/07/29 11:11:18;;;;;;;4.00;1.40;;;;;;;25.43;35.43;101042.97;6217943;23;20419;-81
2021/07/29 11:13:50;;;;;;;5.22;1.50;;;;;;;24.59;35.27;101037.34;6217868;23;20008;-81
2021/07/29 11:16:18;;;;;;;5.75;1.50;;;;;;;25.16;35.03;101027.00;6218514;23;20076;-86
2021/07/29 11:19:20;;;;;;;7.20;2.05;;;;;;;24.69;38.15;101037.91;6218548;23;20063;-85
2021/07/29 11:22:02;;;;;;;3.65;1.30;;;;;;;24.65;38.57;101052.38;6218979;23;20020;-82
2021/07/29 11:24:28;;;;;;;5.05;1.77;;;;;;;24.95;37.65;101054.84;6217104;23;20012;-80
2021/07/29 11:26:53;;;;;;;10.77;2.05;;;;;;;24.62;38.80;101061.50;6190896;23;20011;-85
2021/07/29 11:29:19;;;;;;;6.90;1.85;;;;;;;24.61;38.79;101064.19;6217847;23;20015;-82
2021/07/29 11:32:04;;;;;;;5.88;1.30;;;;;;;23.53;39.14;101055.50;6218061;23;20066;-85
2021/07/29 11:34:36;;;;;;;7.28;1.90;;;;;;;23.54;41.29;101068.88;6188812;23;20466;-83
2021/07/29 11:37:21;;;;;;;6.35;1.85;;;;;;;23.77;39.71;101063.66;6218139;23;20071;-84
2021/07/29 11:39:50;;;;;;;7.90;2.03;;;;;;;24.31;38.34;101059.03;6218178;23;20005;-81
2021/07/29 11:42:16;;;;;;;5.50;1.85;;;;;;;24.73;38.93;101063.75;6217561;23;20004;-80
2021/07/29 11:44:48;;;;;;;7.32;1.80;;;;;;;25.00;39.15;101077.03;6217821;23;20004;-84
2021/07/29 11:47:14;;;;;;;5.55;1.92;;;;;;;24.92;37.61;101074.69;6216880;23;20009;-81
2021/07/29 11:50:05;;;;;;;8.05;1.90;;;;;;;25.04;38.87;101060.72;6216509;23;20436;-82
2021/07/29 11:52:33;;;;;;;8.45;2.28;;;;;;;25.62;39.72;101077.22;6215974;23;20012;-80
2021/07/29 11:55:14;;;;;;;6.88;2.17;;;;;;;25.44;40.30;101077.06;6216418;23;20001;-83
2021/07/29 11:57:40;;;;;;;9.65;2.30;;;;;;;24.40;41.89;101096.34;6216921;23;20013;-84
2021/07/29 12:00:26;;;;;;;9.40;2.40;;;;;;;23.97;41.46;101085.38;6216192;23;20319;-81
2021/07/29 12:03:15;;;;;;;9.90;2.83;;;;;;;23.29;44.41;101110.91;6215875;23;20293;-80
2021/07/29 12:05:46;;;;;;;7.45;1.73;;;;;;;22.51;44.69;101112.34;6216083;23;20428;-85
2021/07/29 12:08:58;;;;;;;8.32;2.13;;;;;;;21.81;46.68;101111.53;6215251;23;20015;-80
2021/07/29 12:11:44;;;;;;;10.10;2.60;;;;;;;23.08;45.71;101103.44;6215746;23;20012;-82
2021/07/29 12:14:15;;;;;;;7.90;2.88;;;;;;;24.10;45.64;101115.34;6215331;23;20016;-87
2021/07/29 12:16:45;;;;;;;10.43;2.28;;;;;;;24.90;45.95;101098.94;6216491;23;20054;-83
2021/07/29 12:19:11;;;;;;;9.80;2.40;;;;;;;24.69;43.16;101097.09;6217148;23;20011;-86
2021/07/29 12:21:36;;;;;;;7.97;2.40;;;;;;;24.17;42.75;101100.78;6215662;23;20004;-80
2021/07/29 12:24:04;;;;;;;9.55;2.13;;;;;;;24.64;44.63;101112.53;6216777;23;20080;-81
2021/07/29 12:26:30;;;;;;;7.40;2.05;;;;;;;24.82;39.83;101084.91;6216205;23;20020;-83
2021/07/29 12:28:56;;;;;;;11.13;2.13;;;;;;;24.89;39.72;101086.44;6216631;23;20325;-85
2021/07/29 12:31:28;;;;;;;9.98;2.50;;;;;;;24.33;41.58;101100.22;6216124;23;20439;-84
2021/07/29 12:34:14;;;;;;;8.32;2.03;;;;;;;24.61;40.45;101109.91;6216045;23;20027;-81
2021/07/29 12:37:02;;;;;;;7.72;2.67;;;;;;;24.59;43.62;101104.59;6215849;23;20016;-80
2021/07/29 12:39:34;;;;;;;11.82;2.55;;;;;;;24.56;44.53;101110.97;6213140;23;20021;-83
2021/07/29 12:41:59;;;;;;;7.45;2.17;;;;;;;24.72;42.61;101114.00;6216350;23;20055;-80
2021/07/29 12:44:25;;;;;;;9.65;2.42;;;;;;;25.28;42.22;101121.72;6215879;23;20008;-78
2021/07/29 12:47:32;;;;;;;12.00;3.35;;;;;;;24.81;41.86;101104.69;6210335;23;20031;-82
2021/07/29 12:50:10;;;;;;;;;;;;;;;;;;;;;
2021/07/29 12:52:36;;;;;;;13.60;2.65;;;;;;;25.38;40.64;101090.78;6209802;23;20084;-85
2021/07/29 12:55:11;;;;;;;13.25;2.88;;;;;;;25.40;39.85;101095.16;6216135;23;20024;-86
2021/07/29 12:57:50;;;;;;;13.05;2.72;;;;;;;24.90;40.52;101096.25;6215867;23;20001;-86
2021/07/29 13:00:51;;;;;;;13.60;2.83;;;;;;;23.60;43.52;101116.13;6190038;23;20335;-84
2021/07/29 13:06:39;;;;;;;12.15;2.63;;;;;;;24.97;42.42;101112.16;6190239;23;20040;-81
2021/07/29 13:09:25;;;;;;;11.07;2.70;;;;;;;25.50;41.53;101114.53;6215977;23;20423;-82
2021/07/29 13:11:53;;;;;;;8.82;2.38;;;;;;;26.11;38.19;101101.19;6214756;23;20340;-82
2021/07/29 13:14:39;;;;;;;8.82;2.08;;;;;;;26.51;39.82;101094.00;6215922;23;20007;-80
2021/07/29 13:17:13;;;;;;;7.50;1.95;;;;;;;26.10;37.40;101097.63;6215370;23;20386;-84
2021/07/29 13:19:39;;;;;;;11.75;2.28;;;;;;;26.81;35.84;101080.03;6216606;23;20328;-76
2021/07/29 13:22:27;;;;;;;9.05;2.58;;;;;;;26.49;35.07;101085.94;6215804;23;20006;-79
2021/07/29 13:25:06;;;;;;;9.07;2.70;;;;;;;26.27;36.41;101096.00;6182137;23;20086;-81
2021/07/29 13:27:32;;;;;;;6.50;2.15;;;;;;;26.11;37.65;101079.63;6215589;23;20032;-84
2021/07/29 13:30:00;;;;;;;10.93;2.38;;;;;;;25.58;37.50;101098.03;6215927;23;20344;-83
2021/07/29 13:32:28;;;;;;;8.40;2.30;;;;;;;26.10;37.06;101097.63;6214986;23;20007;-82
2021/07/29 13:35:14;;;;;;;9.48;2.80;;;;;;;26.47;35.21;101087.00;6216006;23;20001;-79
2021/07/29 13:37:39;;;;;;;10.50;2.65;;;;;;;26.37;37.14;101109.00;6215366;23;20059;-81
2021/07/29 13:40:05;;;;;;;5.38;1.77;;;;;;;26.18;36.38;101089.19;6215816;23;20013;-82
2021/07/29 13:42:32;;;;;;;7.25;1.52;;;;;;;26.22;35.81;101088.09;6216053;23;20001;-80
2021/07/29 13:45:23;;;;;;;18.25;2.70;;;;;;;25.11;37.46;101092.75;6214581;23;20001;-79
2021/07/29 13:48:35;;;;;;;;;;;;;;;;;;;;;
2021/07/29 13:51:29;;;;;;;7.03;1.63;;;;;;;25.55;37.87;101099.03;6207908;23;20079;-82
2021/07/29 13:53:55;;;;;;;11.10;2.42;;;;;;;25.56;36.62;101094.53;6215546;23;20016;-84
2021/07/29 13:57:03;;;;;;;8.35;2.17;;;;;;;25.37;38.56;101099.81;6215185;23;20305;-86
2021/07/29 13:59:39;;;;;;;6.03;1.90;;;;;;;24.95;38.43;101103.28;6210968;23;20055;-83
2021/07/29 14:02:04;;;;;;;8.70;2.30;;;;;;;24.00;40.51;101113.94;6209644;23;20009;-81
2021/07/29 14:04:32;;;;;;;10.70;2.33;;;;;;;23.89;42.00;101128.63;6214804;23;20005;-82
2021/07/29 14:07:18;;;;;;;8.18;2.10;;;;;;;23.95;41.11;101121.28;6216524;23;20013;-83
2021/07/29 14:10:07;;;;;;;14.20;2.70;;;;;;;23.26;43.54;101133.34;6212883;23;20021;-87
2021/07/29 14:13:18;;;;;;;10.70;2.08;;;;;;;23.27;43.27;101145.88;6216506;23;20008;-83
2021/07/29 14:15:44;;;;;;;19.75;3.10;;;;;;;23.09;43.32;101136.56;6215817;23;20009;-84
2021/07/29 14:18:12;;;;;;;11.98;3.08;;;;;;;22.88;44.74;101135.41;6216674;23;20015;-80
2021/07/29 14:20:57;;;;;;;10.82;2.38;;;;;;;23.18;44.29;101136.31;6220173;23;20127;-86
2021/07/29 14:23:32;;;;;;;11.15;2.50;;;;;;;23.30;43.80;101148.44;6246885;23;20087;-83
2021/07/29 14:26:35;;;;;;;13.23;2.72;;;;;;;22.89;46.05;101140.72;6246285;23;20319;-84
2021/07/29 14:29:56;;;;;;;8.57;2.60;;;;;;;22.64;48.30;101145.03;6214247;23;20203;-84
2021/07/29 14:32:21;;;;;;;8.00;2.08;;;;;;;22.68;45.29;101141.34;6214887;23;20017;-80